createdAt,value
2023-03-06T00:01:01.832Z,6.30
2023-03-06T00:03:28.487Z,6.27
2023-03-06T00:05:57.125Z,6.22
2023-03-06T00:08:24.807Z,6.18
2023-03-06T00:10:51.387Z,6.15
2023-03-06T00:13:20.696Z,6.12
2023-03-06T00:15:48.441Z,6.10
2023-03-06T00:18:15.058Z,6.09
2023-03-06T00:20:43.360Z,6.08
2023-03-06T00:23:10.869Z,6.08
2023-03-06T00:25:38.641Z,6.08
2023-03-06T00:28:06.195Z,6.06
2023-03-06T00:30:32.970Z,6.06
2023-03-06T00:32:59.314Z,6.04
2023-03-06T00:35:25.814Z,6.03
2023-03-06T00:37:52.190Z,6.01
2023-03-06T00:40:20.431Z,5.99
2023-03-06T00:42:47.798Z,5.97
2023-03-06T00:45:14.505Z,5.94
2023-03-06T00:47:41.381Z,5.90
2023-03-06T00:50:08.435Z,5.89
2023-03-06T00:52:34.972Z,5.88
2023-03-06T00:55:01.444Z,5.86
2023-03-06T00:57:27.775Z,5.84
2023-03-06T00:59:54.148Z,5.83
2023-03-06T01:02:20.604Z,5.81
2023-03-06T01:04:47.237Z,5.81
2023-03-06T01:07:13.693Z,5.79
2023-03-06T01:09:41.194Z,5.81
2023-03-06T01:12:08.119Z,5.83
2023-03-06T01:14:35.022Z,5.84
2023-03-06T01:17:01.401Z,5.85
2023-03-06T01:19:27.789Z,5.88
2023-03-06T01:21:54.189Z,5.91
2023-03-06T01:24:20.620Z,5.92
2023-03-06T01:26:46.945Z,5.96
2023-03-06T01:29:13.274Z,5.98
2023-03-06T01:31:39.794Z,6.01
2023-03-06T01:34:06.166Z,6.04
2023-03-06T01:36:32.494Z,6.06
2023-03-06T01:38:58.890Z,6.07
2023-03-06T01:41:25.214Z,6.10
2023-03-06T01:43:51.596Z,6.11
2023-03-06T01:46:24.883Z,6.14
2023-03-06T01:48:55.484Z,6.14
2023-03-06T01:51:25.378Z,6.15
2023-03-06T01:53:53.313Z,6.17
2023-03-06T01:56:20.585Z,6.17
2023-03-06T01:58:49.529Z,6.17
2023-03-06T02:01:17.166Z,6.17
2023-03-06T02:03:44.030Z,6.15
2023-03-06T02:06:10.874Z,6.14
2023-03-06T02:08:37.508Z,6.13
2023-03-06T02:11:17.301Z,6.10
2023-03-06T02:13:45.660Z,6.06
2023-03-06T02:16:13.336Z,6.00
2023-03-06T02:18:41.994Z,5.94
2023-03-06T02:21:12.094Z,5.88
2023-03-06T02:24:07.040Z,5.80
2023-03-06T02:26:36.492Z,5.75
2023-03-06T02:29:03.298Z,5.68
2023-03-06T02:31:32.968Z,5.62
2023-03-06T02:34:28.368Z,5.56
2023-03-06T02:37:04.865Z,5.50
2023-03-06T02:39:33.884Z,5.45
2023-03-06T02:42:00.214Z,5.40
2023-03-06T02:44:28.147Z,5.35
2023-03-06T02:46:54.465Z,5.31
2023-03-06T02:49:20.975Z,5.27
2023-03-06T02:51:47.286Z,5.23
2023-03-06T02:54:13.611Z,5.20
2023-03-06T02:56:40.080Z,5.17
2023-03-06T02:59:06.390Z,5.14
2023-03-06T03:01:32.836Z,5.12
2023-03-06T03:03:59.357Z,5.11
2023-03-06T03:06:25.736Z,5.10
2023-03-06T03:08:52.038Z,5.09
2023-03-06T03:11:18.369Z,5.07
2023-03-06T03:13:44.785Z,5.07
2023-03-06T03:16:15.345Z,5.06
2023-03-06T03:18:44.418Z,5.05
2023-03-06T03:21:12.703Z,5.04
2023-03-06T03:23:39.733Z,5.03
2023-03-06T03:26:08.347Z,5.02
2023-03-06T03:28:34.769Z,5.01
2023-03-06T03:31:06.723Z,5.02
2023-03-06T03:33:33.677Z,5.00
2023-03-06T03:36:01.554Z,4.99
2023-03-06T03:38:28.809Z,4.99
2023-03-06T03:40:55.262Z,4.98
2023-03-06T03:43:21.645Z,4.95
2023-03-06T03:45:48.015Z,4.94
2023-03-06T03:48:14.408Z,4.93
2023-03-06T03:50:40.772Z,4.91
2023-03-06T03:53:07.108Z,4.90
2023-03-06T03:55:33.448Z,4.87
2023-03-06T03:57:59.763Z,4.86
2023-03-06T04:00:26.092Z,4.85
2023-03-06T04:02:52.447Z,4.84
2023-03-06T04:05:18.770Z,4.82
2023-03-06T04:07:45.190Z,4.81
2023-03-06T04:10:12.292Z,4.81
2023-03-06T04:12:38.845Z,4.80
2023-03-06T04:15:07.036Z,4.79
2023-03-06T04:17:36.864Z,4.79
2023-03-06T04:20:04.854Z,4.78
2023-03-06T04:22:31.332Z,4.77
2023-03-06T04:24:57.738Z,4.77
2023-03-06T04:27:24.148Z,4.77
2023-03-06T04:29:50.483Z,4.76
2023-03-06T04:32:16.864Z,4.76
2023-03-06T04:34:43.257Z,4.75
2023-03-06T04:37:20.100Z,4.75
2023-03-06T04:39:46.721Z,4.76
2023-03-06T04:42:13.102Z,4.75
2023-03-06T04:44:39.477Z,4.75
2023-03-06T04:47:06.087Z,4.75
2023-03-06T04:49:32.573Z,4.76
2023-03-06T04:51:59.004Z,4.77
2023-03-06T04:54:25.322Z,4.76
2023-03-06T04:56:51.773Z,4.77
2023-03-06T04:59:18.136Z,4.78
2023-03-06T05:01:44.490Z,4.79
2023-03-06T05:04:10.877Z,4.79
2023-03-06T05:06:37.290Z,4.80
2023-03-06T05:09:03.826Z,4.82
2023-03-06T05:11:30.196Z,4.81
2023-03-06T05:13:56.615Z,4.83
2023-03-06T05:16:22.989Z,4.85
2023-03-06T05:18:50.680Z,4.86
2023-03-06T05:21:17.276Z,4.84
2023-03-06T05:23:43.865Z,4.85
2023-03-06T05:26:12.243Z,4.86
2023-03-06T05:28:38.682Z,4.86
2023-03-06T05:31:05.679Z,4.85
2023-03-06T05:33:33.761Z,4.85
2023-03-06T05:36:00.221Z,4.85
2023-03-06T05:38:27.287Z,4.86
2023-03-06T05:40:53.747Z,4.86
2023-03-06T05:43:20.426Z,4.88
2023-03-06T05:45:46.835Z,4.89
2023-03-06T05:48:13.951Z,4.91
2023-03-06T05:50:40.282Z,4.93
2023-03-06T05:53:06.748Z,4.95
2023-03-06T05:55:33.183Z,4.97
2023-03-06T05:57:59.805Z,4.99
2023-03-06T06:00:26.288Z,5.00
2023-03-06T06:02:52.681Z,5.00
2023-03-06T06:05:19.101Z,5.02
2023-03-06T06:07:45.426Z,5.03
2023-03-06T06:10:12.171Z,5.05
2023-03-06T06:12:38.748Z,5.06
2023-03-06T06:15:06.513Z,5.06
2023-03-06T06:17:33.001Z,5.07
2023-03-06T06:19:59.359Z,5.07
2023-03-06T06:22:25.700Z,5.08
2023-03-06T06:24:52.067Z,5.09
2023-03-06T06:27:18.399Z,5.09
2023-03-06T06:29:44.740Z,5.10
2023-03-06T06:32:11.139Z,5.11
2023-03-06T06:34:37.511Z,5.11
2023-03-06T06:37:04.004Z,5.12
2023-03-06T06:39:30.402Z,5.13
2023-03-06T06:42:14.530Z,5.13
2023-03-06T06:44:43.589Z,5.14
2023-03-06T06:47:22.342Z,5.17
2023-03-06T06:49:51.436Z,5.18
2023-03-06T06:52:18.673Z,5.19
2023-03-06T06:54:45.452Z,5.20
2023-03-06T06:57:12.524Z,5.22
2023-03-06T06:59:38.948Z,5.24
2023-03-06T07:02:05.774Z,5.25
2023-03-06T07:04:32.116Z,5.27
2023-03-06T07:06:59.092Z,5.29
2023-03-06T07:09:26.442Z,5.30
2023-03-06T07:11:52.955Z,5.31
2023-03-06T07:14:19.392Z,5.31
2023-03-06T07:16:45.731Z,5.31
2023-03-06T07:19:12.096Z,5.32
2023-03-06T07:21:38.436Z,5.33
2023-03-06T07:24:04.940Z,5.33
2023-03-06T07:26:34.474Z,5.32
2023-03-06T07:29:01.415Z,5.32
2023-03-06T07:31:28.545Z,5.31
2023-03-06T07:33:55.178Z,5.29
2023-03-06T07:36:23.236Z,5.31
2023-03-06T07:38:49.922Z,5.29
2023-03-06T07:41:17.068Z,5.30
2023-03-06T07:43:45.285Z,5.31
2023-03-06T07:46:13.043Z,5.28
2023-03-06T07:48:40.086Z,5.28
2023-03-06T07:51:13.194Z,5.28
2023-03-06T07:53:39.559Z,5.27
2023-03-06T07:56:08.773Z,5.25
2023-03-06T07:58:36.634Z,5.25
2023-03-06T08:01:14.366Z,5.26
2023-03-06T08:03:41.125Z,5.23
2023-03-06T08:06:16.344Z,5.23
2023-03-06T08:08:44.881Z,5.22
2023-03-06T08:11:13.661Z,5.21
2023-03-06T08:13:40.327Z,5.20
2023-03-06T08:16:08.100Z,5.19
2023-03-06T08:18:34.634Z,5.19
2023-03-06T08:21:07.162Z,5.17
2023-03-06T08:23:34.791Z,5.17
2023-03-06T08:26:04.326Z,5.16
2023-03-06T08:28:31.002Z,5.15
2023-03-06T08:30:58.454Z,5.15
2023-03-06T08:33:24.957Z,5.13
2023-03-06T08:35:52.372Z,5.15
2023-03-06T08:38:18.874Z,5.14
2023-03-06T08:40:45.235Z,5.15
2023-03-06T08:43:13.768Z,5.17
2023-03-06T08:45:40.764Z,5.18
2023-03-06T08:48:07.163Z,5.20
2023-03-06T08:50:33.593Z,5.20
2023-03-06T08:52:59.992Z,5.22
2023-03-06T08:55:27.999Z,5.24
2023-03-06T08:57:54.565Z,5.24
2023-03-06T09:00:21.086Z,5.27
2023-03-06T09:02:47.455Z,5.28
2023-03-06T09:05:13.903Z,5.31
2023-03-06T09:07:40.228Z,5.35
2023-03-06T09:10:07.083Z,5.41
2023-03-06T09:12:43.904Z,5.47
2023-03-06T09:15:16.415Z,5.59
2023-03-06T09:17:43.046Z,5.71
2023-03-06T09:20:11.043Z,5.83
2023-03-06T09:22:38.365Z,5.96
2023-03-06T09:25:06.377Z,6.08
2023-03-06T09:27:32.942Z,6.18
2023-03-06T09:29:59.305Z,6.27
2023-03-06T09:32:25.879Z,6.33
2023-03-06T09:34:52.285Z,6.36
2023-03-06T09:37:18.999Z,6.36
2023-03-06T09:39:45.413Z,6.34
2023-03-06T09:42:17.123Z,6.34
2023-03-06T09:44:50.258Z,6.33
2023-03-06T09:47:37.914Z,6.32
2023-03-06T09:50:13.706Z,6.35
2023-03-06T09:52:45.978Z,6.42
2023-03-06T09:55:14.496Z,6.47
2023-03-06T09:58:00.634Z,6.51
2023-03-06T10:01:00.176Z,6.58
2023-03-06T10:03:51.896Z,6.66
2023-03-06T10:06:26.267Z,6.77
2023-03-06T10:09:00.626Z,6.90
2023-03-06T10:11:53.324Z,7.06
2023-03-06T10:14:39.948Z,7.17
2023-03-06T10:17:15.817Z,7.32
2023-03-06T10:19:42.436Z,7.46
2023-03-06T10:22:55.380Z,7.59
2023-03-06T10:25:27.995Z,7.68
2023-03-06T10:28:10.955Z,7.72
2023-03-06T10:30:58.593Z,7.72
2023-03-06T10:33:46.561Z,7.68
2023-03-06T10:36:29.701Z,7.64
2023-03-06T10:38:58.352Z,7.61
2023-03-06T10:41:26.364Z,7.56
2023-03-06T10:44:12.898Z,7.55
2023-03-06T10:46:44.543Z,7.54
2023-03-06T10:49:32.522Z,7.50
2023-03-06T10:52:19.897Z,7.48
2023-03-06T10:55:24.070Z,7.47
2023-03-06T10:57:50.676Z,7.48
2023-03-06T11:00:27.743Z,7.51
2023-03-06T11:03:27.389Z,7.58
2023-03-06T11:06:31.686Z,7.66
2023-03-06T11:09:24.719Z,7.74
2023-03-06T11:11:51.225Z,7.83
2023-03-06T11:14:27.190Z,7.94
2023-03-06T11:16:54.133Z,8.04
2023-03-06T11:19:26.372Z,8.14
2023-03-06T11:22:04.621Z,8.24
2023-03-06T11:24:45.955Z,8.31
2023-03-06T11:27:25.248Z,8.35
2023-03-06T11:29:54.585Z,8.40
2023-03-06T11:32:30.894Z,8.41
2023-03-06T11:35:02.493Z,8.39
2023-03-06T11:37:31.935Z,8.38
2023-03-06T11:40:26.269Z,8.33
2023-03-06T11:43:20.872Z,8.31
2023-03-06T11:45:56.939Z,8.25
2023-03-06T11:48:30.697Z,8.19
2023-03-06T11:51:26.152Z,8.16
2023-03-06T11:53:54.152Z,8.15
2023-03-06T11:56:31.900Z,8.15
2023-03-06T11:59:29.202Z,8.21
2023-03-06T12:02:19.987Z,8.29
2023-03-06T12:04:55.580Z,8.39
2023-03-06T12:07:27.981Z,8.51
2023-03-06T12:09:54.251Z,8.64
2023-03-06T12:12:39.062Z,8.76
2023-03-06T12:15:33.605Z,8.89
2023-03-06T12:18:14.426Z,8.99
2023-03-06T12:21:04.296Z,9.09
2023-03-06T12:23:59.997Z,9.16
2023-03-06T12:26:32.415Z,9.26
2023-03-06T12:29:18.252Z,9.31
2023-03-06T12:32:08.380Z,9.35
2023-03-06T12:34:51.301Z,9.39
2023-03-06T12:37:47.464Z,9.42
2023-03-06T12:40:35.862Z,9.48
2023-03-06T12:43:22.667Z,9.55
2023-03-06T12:45:54.388Z,9.61
2023-03-06T12:48:29.350Z,9.74
2023-03-06T12:50:56.261Z,9.87
2023-03-06T12:53:29.022Z,10.02
2023-03-06T12:55:57.659Z,10.19
2023-03-06T12:58:30.124Z,10.37
2023-03-06T13:01:20.117Z,10.53
2023-03-06T13:03:58.662Z,10.72
2023-03-06T13:06:54.179Z,10.86
2023-03-06T13:09:44.689Z,11.00
2023-03-06T13:12:46.782Z,11.11
2023-03-06T13:15:40.972Z,11.14
2023-03-06T13:18:19.589Z,11.16
2023-03-06T13:20:46.183Z,11.14
2023-03-06T13:23:49.395Z,11.18
2023-03-06T13:26:25.143Z,11.22
2023-03-06T13:28:54.019Z,11.26
2023-03-06T13:31:48.091Z,11.29
2023-03-06T13:34:40.308Z,11.30
2023-03-06T13:37:19.840Z,11.30
2023-03-06T13:39:52.407Z,11.30
2023-03-06T13:42:54.493Z,11.32
2023-03-06T13:45:25.967Z,11.36
2023-03-06T13:50:47.042Z,11.47
2023-03-06T13:53:22.280Z,11.55
2023-03-06T13:56:08.219Z,11.62
2023-03-06T13:59:03.653Z,11.70
2023-03-06T14:01:33.040Z,11.73
2023-03-06T14:04:38.137Z,11.72
2023-03-06T14:07:19.473Z,11.70
2023-03-06T14:09:50.102Z,11.67
2023-03-06T14:12:26.666Z,11.65
2023-03-06T14:14:57.400Z,11.62
2023-03-06T14:17:30.074Z,11.56
2023-03-06T14:20:01.328Z,11.51
2023-03-06T14:22:27.690Z,11.45
2023-03-06T14:24:59.661Z,11.42
2023-03-06T14:28:05.731Z,11.37
2023-03-06T14:30:49.321Z,11.31
2023-03-06T14:33:29.074Z,11.23
2023-03-06T14:35:58.314Z,11.15
2023-03-06T14:38:26.056Z,11.08
2023-03-06T14:40:52.581Z,11.03
2023-03-06T14:43:20.668Z,10.98
2023-03-06T14:45:52.998Z,10.96
2023-03-06T14:48:19.353Z,10.94
2023-03-06T14:50:52.400Z,10.94
2023-03-06T14:53:23.041Z,10.94
2023-03-06T14:55:53.243Z,10.92
2023-03-06T14:58:42.032Z,10.91
2023-03-06T15:01:10.554Z,10.90
2023-03-06T15:03:48.925Z,10.89
2023-03-06T15:06:29.731Z,10.88
2023-03-06T15:09:08.312Z,10.84
2023-03-06T15:12:10.269Z,10.81
2023-03-06T15:14:41.700Z,10.78
2023-03-06T15:17:17.259Z,10.76
2023-03-06T15:19:45.742Z,10.73
2023-03-06T15:22:43.685Z,10.71
2023-03-06T15:25:16.336Z,10.69
2023-03-06T15:27:48.638Z,10.68
2023-03-06T15:30:35.048Z,10.64
2023-03-06T15:33:23.433Z,10.63
2023-03-06T15:35:54.938Z,10.59
2023-03-06T15:38:40.322Z,10.54
2023-03-06T15:41:20.113Z,10.49
2023-03-06T15:43:46.528Z,10.45
2023-03-06T15:46:13.230Z,10.42
2023-03-06T15:48:39.608Z,10.37
2023-03-06T15:51:06.293Z,10.33
2023-03-06T15:53:32.715Z,10.29
2023-03-06T15:55:59.437Z,10.24
2023-03-06T15:58:33.515Z,10.22
2023-03-06T16:01:00.093Z,10.16
2023-03-06T16:03:26.678Z,10.11
2023-03-06T16:05:53.056Z,10.06
2023-03-06T16:08:19.794Z,10.00
2023-03-06T16:10:47.558Z,9.95
2023-03-06T16:13:20.722Z,9.89
2023-03-06T16:15:50.059Z,9.84
2023-03-06T16:18:16.563Z,9.76
2023-03-06T16:20:43.116Z,9.71
2023-03-06T16:23:10.580Z,9.63
2023-03-06T16:25:42.237Z,9.60
2023-03-06T16:28:14.317Z,9.55
2023-03-06T16:30:43.272Z,9.50
2023-03-06T16:33:13.581Z,9.46
2023-03-06T16:35:41.146Z,9.43
2023-03-06T16:38:07.568Z,9.40
2023-03-06T16:40:37.500Z,9.38
2023-03-06T16:43:05.810Z,9.34
2023-03-06T16:45:36.570Z,9.31
2023-03-06T16:48:03.329Z,9.28
2023-03-06T16:50:36.266Z,9.23
2023-03-06T16:53:02.890Z,9.18
2023-03-06T16:55:29.276Z,9.13
2023-03-06T16:57:55.816Z,9.08
2023-03-06T17:00:24.626Z,9.02
2023-03-06T17:02:52.232Z,8.96
2023-03-06T17:05:19.420Z,8.91
2023-03-06T17:07:45.862Z,8.84
2023-03-06T17:10:15.910Z,8.79
2023-03-06T17:12:43.024Z,8.74
2023-03-06T17:15:10.052Z,8.69
2023-03-06T17:17:36.646Z,8.65
2023-03-06T17:20:04.547Z,8.61
2023-03-06T17:22:33.536Z,8.57
2023-03-06T17:25:06.649Z,8.53
2023-03-06T17:27:34.092Z,8.49
2023-03-06T17:30:01.051Z,8.47
2023-03-06T17:32:28.000Z,8.44
2023-03-06T17:34:54.745Z,8.42
2023-03-06T17:37:21.238Z,8.41
2023-03-06T17:39:47.670Z,8.39
2023-03-06T17:42:14.061Z,8.36
2023-03-06T17:44:40.381Z,8.34
2023-03-06T17:47:06.936Z,8.30
2023-03-06T17:49:33.476Z,8.30
2023-03-06T17:52:00.879Z,8.27
2023-03-06T17:54:29.119Z,8.26
2023-03-06T17:57:05.273Z,8.24
2023-03-06T17:59:34.157Z,8.23
2023-03-06T18:02:01.329Z,8.21
2023-03-06T18:04:28.208Z,8.20
2023-03-06T18:06:54.714Z,8.19
2023-03-06T18:09:21.116Z,8.19
2023-03-06T18:11:47.597Z,8.17
2023-03-06T18:14:14.080Z,8.16
2023-03-06T18:16:40.820Z,8.15
2023-03-06T18:19:07.177Z,8.14
2023-03-06T18:21:33.538Z,8.12
2023-03-06T18:23:59.883Z,8.11
2023-03-06T18:26:29.069Z,8.10
2023-03-06T18:28:58.156Z,8.09
2023-03-06T18:31:26.010Z,8.06
2023-03-06T18:33:54.972Z,8.04
2023-03-06T18:36:23.523Z,8.03
2023-03-06T18:38:50.026Z,7.99
2023-03-06T18:41:19.646Z,7.96
2023-03-06T18:43:51.619Z,7.92
2023-03-06T18:46:18.204Z,7.87
2023-03-06T18:48:44.548Z,7.81
2023-03-06T18:51:12.296Z,7.76
2023-03-06T18:53:39.950Z,7.70
2023-03-06T18:56:07.580Z,7.65
2023-03-06T18:58:34.580Z,7.61
2023-03-06T19:01:05.949Z,7.58
2023-03-06T19:03:32.313Z,7.54
2023-03-06T19:05:59.362Z,7.50
2023-03-06T19:08:25.790Z,7.46
2023-03-06T19:10:52.115Z,7.45
2023-03-06T19:13:18.500Z,7.40
2023-03-06T19:15:48.021Z,7.37
2023-03-06T19:18:17.342Z,7.33
2023-03-06T19:20:44.797Z,7.28
2023-03-06T19:23:11.332Z,7.25
2023-03-06T19:25:37.757Z,7.24
2023-03-06T19:28:04.711Z,7.21
2023-03-06T19:30:31.232Z,7.20
2023-03-06T19:32:57.634Z,7.17
2023-03-06T19:35:26.695Z,7.15
2023-03-06T19:37:53.395Z,7.13
2023-03-06T19:40:20.132Z,7.11
2023-03-06T19:42:46.816Z,7.09
2023-03-06T19:45:13.178Z,7.09
2023-03-06T19:47:39.494Z,7.09
2023-03-06T19:50:06.396Z,7.09
2023-03-06T19:52:36.347Z,7.10
2023-03-06T19:55:02.758Z,7.09
2023-03-06T19:57:29.135Z,7.08
2023-03-06T19:59:57.546Z,7.07
2023-03-06T20:02:27.322Z,7.06
2023-03-06T20:04:54.633Z,7.04
2023-03-06T20:07:21.187Z,7.02
2023-03-06T20:09:48.127Z,7.01
2023-03-06T20:12:15.476Z,6.99
2023-03-06T20:14:42.798Z,6.99
2023-03-06T20:17:09.273Z,6.99
2023-03-06T20:19:36.392Z,6.99
2023-03-06T20:22:03.201Z,6.99
2023-03-06T20:24:29.563Z,6.99
2023-03-06T20:26:57.592Z,6.97
2023-03-06T20:29:28.053Z,6.97
2023-03-06T20:31:55.955Z,6.93
2023-03-06T20:34:23.099Z,6.91
2023-03-06T20:36:49.625Z,6.89
2023-03-06T20:39:18.902Z,6.88
2023-03-06T20:41:46.785Z,6.86
2023-03-06T20:44:18.792Z,6.86
2023-03-06T20:46:45.990Z,6.83
2023-03-06T20:49:13.273Z,6.82
2023-03-06T20:51:41.357Z,6.82
2023-03-06T20:54:11.424Z,6.80
2023-03-06T20:56:39.595Z,6.78
2023-03-06T20:59:06.579Z,6.78
2023-03-06T21:01:41.025Z,6.77
2023-03-06T21:04:10.026Z,6.76
2023-03-06T21:06:37.654Z,6.75
2023-03-06T21:09:06.684Z,6.75
2023-03-06T21:11:34.862Z,6.75
2023-03-06T21:14:01.483Z,6.75
2023-03-06T21:16:30.062Z,6.75
2023-03-06T21:18:58.709Z,6.75
2023-03-06T21:21:28.079Z,6.74
2023-03-06T21:23:54.793Z,6.75
2023-03-06T21:26:23.844Z,6.74
2023-03-06T21:28:50.325Z,6.74
2023-03-06T21:31:18.900Z,6.74
2023-03-06T21:33:46.741Z,6.73
2023-03-06T21:36:13.458Z,6.74
2023-03-06T21:38:39.929Z,6.74
2023-03-06T21:41:24.970Z,6.75
2023-03-06T21:43:59.113Z,6.77
2023-03-06T21:46:26.889Z,6.77
2023-03-06T21:48:54.289Z,6.78
2023-03-06T21:51:23.474Z,6.78
2023-03-06T21:53:50.934Z,6.78
2023-03-06T21:56:20.677Z,6.77
2023-03-06T21:58:47.198Z,6.76
2023-03-06T22:01:31.530Z,6.76
2023-03-06T22:03:58.901Z,6.75
2023-03-06T22:06:27.278Z,6.74
2023-03-06T22:08:58.536Z,6.74
2023-03-06T22:11:26.151Z,6.73
2023-03-06T22:13:55.629Z,6.73
2023-03-06T22:16:22.164Z,6.70
2023-03-06T22:18:50.087Z,6.69
2023-03-06T22:21:19.241Z,6.66
2023-03-06T22:23:53.061Z,6.65
2023-03-06T22:26:20.248Z,6.63
2023-03-06T22:28:46.898Z,6.61
2023-03-06T22:31:16.936Z,6.60
2023-03-06T22:33:43.915Z,6.58
2023-03-06T22:36:12.949Z,6.57
2023-03-06T22:38:42.263Z,6.56
2023-03-06T22:41:10.533Z,6.54
2023-03-06T22:43:37.325Z,6.55
2023-03-06T22:46:06.224Z,6.54
2023-03-06T22:48:32.971Z,6.53
2023-03-06T22:51:12.208Z,6.54
2023-03-06T22:53:38.960Z,6.53
2023-03-06T22:56:07.909Z,6.52
2023-03-06T22:58:37.037Z,6.51
2023-03-06T23:01:15.506Z,6.49
2023-03-06T23:03:44.796Z,6.48
2023-03-06T23:06:35.169Z,6.46
2023-03-06T23:09:05.876Z,6.45
2023-03-06T23:11:33.440Z,6.42
2023-03-06T23:14:00.624Z,6.40
2023-03-06T23:16:26.983Z,6.37
2023-03-06T23:18:53.686Z,6.35
2023-03-06T23:21:21.452Z,6.32
2023-03-06T23:23:49.373Z,6.28
2023-03-06T23:26:16.467Z,6.27
2023-03-06T23:28:43.320Z,6.24
2023-03-06T23:31:11.921Z,6.23
2023-03-06T23:33:41.203Z,6.21
2023-03-06T23:36:10.873Z,6.19
2023-03-06T23:38:38.093Z,6.18
2023-03-06T23:41:10.610Z,6.17
2023-03-06T23:43:37.064Z,6.14
2023-03-06T23:46:03.571Z,6.13
2023-03-06T23:48:30.078Z,6.12
2023-03-06T23:50:57.054Z,6.12
2023-03-06T23:53:23.939Z,6.11
2023-03-06T23:55:51.352Z,6.11
2023-03-06T23:58:19.035Z,6.11
